Grand Junction Regional Airport
KGJT : rendu visible

Aérodrome :











RETROUVEZ-NOUS SUR...

 
LOGIN :

S'inscrire | Disclaimer

   EN    FR    IT 

 









Légende :    VFR   VFR Marginal   IFR   IFR Intensif   IFR Très Intensif
Visi : 
Plafond : 
>= 8 km
>= 3000ft
5 à 8 km
1000 à 3000 ft
1500m à 5 km
500 à 1000 ft
800 à 1500m
200 à 500 ft
< 800m
< 200 ft
Symboles :   Orages  Brouillard  Fortes neiges  Fortes précipitations  Vent > 20 kt






- Altitude de l'aérodrome : 4858 ft
- Code IATA : GJT


KGJT - Grand Junction Regional

DERNIER METAR :
  • 222253Z 28006KT 10SM FEW065 08/00 A3011 RMK AO2 SLP184 T00780000

METARs EXPIRÉS :
  • 222153Z 31011KT 10SM FEW040 OVC070 08/M01 A3011 RMK AO2 SLP181 T00831006
  • 222053Z 30007KT 10SM CLR 08/M01 A3010 RMK AO2 SLP179 T00831011 56011

TAF KGJT
Valide du 22 à 18h jusqu'au 23 à 18h UTC


221720Z 2218/2318 32004KT P6SM BKN050
FM222000 31006KT P6SM SCT035 BKN070
FM230200 04005KT P6SM FEW060 SCT180
FM230700 VRB04KT P6SM FEW060 FEW180
FM231700 12005KT P6SM SKC



MET'MAP, la Météo Aéronautique d'un coup d'oeil ! - Copyright ORBIFLY Décembre 2007 - Disclaimer

ORBIFLY MET'MAP TEAM :

Programmation & Développement : Alexandra Zaïnal
Conception & Développement : Baudouin d'Aumeries
Co-Programmation & Développement : Marc-Olivier Méhu
Soutien technique & logistique : Manuel Goepfert

Contact : metmap@orbifly.com




SOURCES & CREDITS :

   NOAA       Earth
Advisory